sensor_id;sensor_type;location;lat;lon;timestamp;temperature;humidity
41720;DHT22;27405;53.316;-6.294;2023-07-13T00:02:15;15.00;95.40
41720;DHT22;27405;53.316;-6.294;2023-07-13T00:04:41;15.00;95.40
41720;DHT22;27405;53.316;-6.294;2023-07-13T00:07:08;15.00;95.50
41720;DHT22;27405;53.316;-6.294;2023-07-13T00:09:34;14.90;95.50
41720;DHT22;27405;53.316;-6.294;2023-07-13T00:12:01;14.90;95.60
41720;DHT22;27405;53.316;-6.294;2023-07-13T00:14:28;15.00;95.60
41720;DHT22;27405;53.316;-6.294;2023-07-13T00:16:55;14.90;95.60
41720;DHT22;27405;53.316;-6.294;2023-07-13T00:19:20;14.90;95.70
41720;DHT22;27405;53.316;-6.294;2023-07-13T00:21:46;14.90;95.70
41720;DHT22;27405;53.316;-6.294;2023-07-13T00:24:17;14.90;95.80
41720;DHT22;27405;53.316;-6.294;2023-07-13T00:26:48;14.90;95.80
41720;DHT22;27405;53.316;-6.294;2023-07-13T00:29:14;14.90;95.70
41720;DHT22;27405;53.316;-6.294;2023-07-13T00:31:41;14.90;95.80
41720;DHT22;27405;53.316;-6.294;2023-07-13T00:34:07;14.90;95.80
41720;DHT22;27405;53.316;-6.294;2023-07-13T00:36:33;14.90;95.80
41720;DHT22;27405;53.316;-6.294;2023-07-13T00:38:59;14.90;95.80
41720;DHT22;27405;53.316;-6.294;2023-07-13T00:41:25;14.90;95.80
41720;DHT22;27405;53.316;-6.294;2023-07-13T00:43:51;14.90;95.90
41720;DHT22;27405;53.316;-6.294;2023-07-13T00:46:29;14.90;95.90
41720;DHT22;27405;53.316;-6.294;2023-07-13T00:48:59;15.00;95.90
41720;DHT22;27405;53.316;-6.294;2023-07-13T00:51:40;15.00;95.90
41720;DHT22;27405;53.316;-6.294;2023-07-13T00:54:09;15.00;95.80
41720;DHT22;27405;53.316;-6.294;2023-07-13T00:56:37;15.00;95.80
41720;DHT22;27405;53.316;-6.294;2023-07-13T00:59:04;15.00;95.80
41720;DHT22;27405;53.316;-6.294;2023-07-13T01:01:32;15.10;95.80
41720;DHT22;27405;53.316;-6.294;2023-07-13T01:03:57;15.10;95.70
41720;DHT22;27405;53.316;-6.294;2023-07-13T01:06:24;15.10;95.70
41720;DHT22;27405;53.316;-6.294;2023-07-13T01:08:49;15.10;95.70
41720;DHT22;27405;53.316;-6.294;2023-07-13T01:11:19;15.10;95.70
41720;DHT22;27405;53.316;-6.294;2023-07-13T01:13:46;15.10;95.70
41720;DHT22;27405;53.316;-6.294;2023-07-13T01:16:18;15.10;95.60
41720;DHT22;27405;53.316;-6.294;2023-07-13T01:18:45;15.10;95.60
41720;DHT22;27405;53.316;-6.294;2023-07-13T01:21:10;15.00;95.60
41720;DHT22;27405;53.316;-6.294;2023-07-13T01:23:36;15.00;95.60
41720;DHT22;27405;53.316;-6.294;2023-07-13T01:26:02;15.00;95.60
41720;DHT22;27405;53.316;-6.294;2023-07-13T01:28:28;15.00;95.60
41720;DHT22;27405;53.316;-6.294;2023-07-13T01:30:57;15.00;95.60
41720;DHT22;27405;53.316;-6.294;2023-07-13T01:33:23;15.00;95.60
41720;DHT22;27405;53.316;-6.294;2023-07-13T01:35:49;15.00;95.70
41720;DHT22;27405;53.316;-6.294;2023-07-13T01:38:17;15.00;95.50
41720;DHT22;27405;53.316;-6.294;2023-07-13T01:40:43;14.90;95.60
41720;DHT22;27405;53.316;-6.294;2023-07-13T01:43:09;14.80;95.60
41720;DHT22;27405;53.316;-6.294;2023-07-13T01:45:35;14.90;95.70
41720;DHT22;27405;53.316;-6.294;2023-07-13T01:48:00;14.80;95.70
41720;DHT22;27405;53.316;-6.294;2023-07-13T01:50:27;14.80;95.80
41720;DHT22;27405;53.316;-6.294;2023-07-13T01:52:53;14.80;95.80
41720;DHT22;27405;53.316;-6.294;2023-07-13T01:55:19;14.70;95.80
41720;DHT22;27405;53.316;-6.294;2023-07-13T01:57:45;14.80;95.80
41720;DHT22;27405;53.316;-6.294;2023-07-13T02:00:13;14.70;95.80
41720;DHT22;27405;53.316;-6.294;2023-07-13T02:02:39;14.70;95.90
41720;DHT22;27405;53.316;-6.294;2023-07-13T02:05:05;14.70;95.90
41720;DHT22;27405;53.316;-6.294;2023-07-13T02:07:31;14.60;96.00
41720;DHT22;27405;53.316;-6.294;2023-07-13T02:09:57;14.60;96.00
41720;DHT22;27405;53.316;-6.294;2023-07-13T02:12:22;14.60;96.00
41720;DHT22;27405;53.316;-6.294;2023-07-13T02:14:48;14.60;96.00
41720;DHT22;27405;53.316;-6.294;2023-07-13T02:17:14;14.60;96.10
41720;DHT22;27405;53.316;-6.294;2023-07-13T02:19:40;14.70;96.10
41720;DHT22;27405;53.316;-6.294;2023-07-13T02:22:06;14.70;96.10
41720;DHT22;27405;53.316;-6.294;2023-07-13T02:24:32;14.70;96.10
41720;DHT22;27405;53.316;-6.294;2023-07-13T02:26:57;14.70;96.00
41720;DHT22;27405;53.316;-6.294;2023-07-13T02:29:23;14.80;96.10
41720;DHT22;27405;53.316;-6.294;2023-07-13T02:31:49;14.70;96.10
41720;DHT22;27405;53.316;-6.294;2023-07-13T02:34:15;14.80;96.10
41720;DHT22;27405;53.316;-6.294;2023-07-13T02:36:40;14.80;96.10
41720;DHT22;27405;53.316;-6.294;2023-07-13T02:39:07;14.80;96.10
41720;DHT22;27405;53.316;-6.294;2023-07-13T02:41:32;14.80;96.10
41720;DHT22;27405;53.316;-6.294;2023-07-13T02:43:59;14.70;96.10
41720;DHT22;27405;53.316;-6.294;2023-07-13T02:46:30;14.70;96.10
41720;DHT22;27405;53.316;-6.294;2023-07-13T02:48:56;14.70;96.20
41720;DHT22;27405;53.316;-6.294;2023-07-13T02:51:21;14.80;96.20
41720;DHT22;27405;53.316;-6.294;2023-07-13T02:53:47;14.70;96.20
41720;DHT22;27405;53.316;-6.294;2023-07-13T02:56:13;14.70;96.20
41720;DHT22;27405;53.316;-6.294;2023-07-13T02:58:38;14.70;96.20
41720;DHT22;27405;53.316;-6.294;2023-07-13T03:01:10;14.70;96.20
41720;DHT22;27405;53.316;-6.294;2023-07-13T03:03:36;14.70;96.20
41720;DHT22;27405;53.316;-6.294;2023-07-13T03:06:04;14.60;96.20
41720;DHT22;27405;53.316;-6.294;2023-07-13T03:08:31;14.60;96.30
41720;DHT22;27405;53.316;-6.294;2023-07-13T03:11:01;14.60;96.40
41720;DHT22;27405;53.316;-6.294;2023-07-13T03:13:27;14.60;96.50
41720;DHT22;27405;53.316;-6.294;2023-07-13T03:15:53;14.60;96.50
41720;DHT22;27405;53.316;-6.294;2023-07-13T03:18:19;14.60;96.50
41720;DHT22;27405;53.316;-6.294;2023-07-13T03:20:44;14.60;96.50
41720;DHT22;27405;53.316;-6.294;2023-07-13T03:23:10;14.60;96.60
41720;DHT22;27405;53.316;-6.294;2023-07-13T03:25:36;14.60;96.60
41720;DHT22;27405;53.316;-6.294;2023-07-13T03:28:02;14.50;96.60
41720;DHT22;27405;53.316;-6.294;2023-07-13T03:30:27;14.50;96.60
41720;DHT22;27405;53.316;-6.294;2023-07-13T03:32:53;14.50;96.60
41720;DHT22;27405;53.316;-6.294;2023-07-13T03:35:19;14.50;96.60
41720;DHT22;27405;53.316;-6.294;2023-07-13T03:37:45;14.40;96.60
41720;DHT22;27405;53.316;-6.294;2023-07-13T03:40:11;14.40;96.70
41720;DHT22;27405;53.316;-6.294;2023-07-13T03:42:37;14.40;96.70
41720;DHT22;27405;53.316;-6.294;2023-07-13T03:45:03;14.30;96.70
41720;DHT22;27405;53.316;-6.294;2023-07-13T03:47:28;14.30;96.80
41720;DHT22;27405;53.316;-6.294;2023-07-13T03:49:54;14.20;96.90
41720;DHT22;27405;53.316;-6.294;2023-07-13T03:52:20;14.20;97.00
41720;DHT22;27405;53.316;-6.294;2023-07-13T03:54:46;14.20;97.10
41720;DHT22;27405;53.316;-6.294;2023-07-13T03:57:11;14.20;97.20
41720;DHT22;27405;53.316;-6.294;2023-07-13T03:59:37;14.20;97.30
41720;DHT22;27405;53.316;-6.294;2023-07-13T04:02:03;14.20;97.30
41720;DHT22;27405;53.316;-6.294;2023-07-13T04:04:30;14.20;97.40
41720;DHT22;27405;53.316;-6.294;2023-07-13T04:06:57;14.20;97.40
41720;DHT22;27405;53.316;-6.294;2023-07-13T04:09:25;14.20;97.40
41720;DHT22;27405;53.316;-6.294;2023-07-13T04:11:51;14.20;97.40
41720;DHT22;27405;53.316;-6.294;2023-07-13T04:14:17;14.30;97.40
41720;DHT22;27405;53.316;-6.294;2023-07-13T04:16:43;14.30;97.40
41720;DHT22;27405;53.316;-6.294;2023-07-13T04:19:10;14.30;97.40
41720;DHT22;27405;53.316;-6.294;2023-07-13T04:21:36;14.30;97.40
41720;DHT22;27405;53.316;-6.294;2023-07-13T04:24:02;14.40;97.40
41720;DHT22;27405;53.316;-6.294;2023-07-13T04:26:29;14.40;97.40
41720;DHT22;27405;53.316;-6.294;2023-07-13T04:28:55;14.40;97.40
41720;DHT22;27405;53.316;-6.294;2023-07-13T04:31:22;14.40;97.40
41720;DHT22;27405;53.316;-6.294;2023-07-13T04:33:48;14.40;97.50
41720;DHT22;27405;53.316;-6.294;2023-07-13T04:36:15;14.50;97.50
41720;DHT22;27405;53.316;-6.294;2023-07-13T04:38:41;14.50;97.50
41720;DHT22;27405;53.316;-6.294;2023-07-13T04:41:08;14.50;97.50
41720;DHT22;27405;53.316;-6.294;2023-07-13T04:43:34;14.50;97.50
41720;DHT22;27405;53.316;-6.294;2023-07-13T04:46:05;14.50;97.40
41720;DHT22;27405;53.316;-6.294;2023-07-13T04:48:31;14.50;97.50
41720;DHT22;27405;53.316;-6.294;2023-07-13T04:50:58;14.50;97.50
41720;DHT22;27405;53.316;-6.294;2023-07-13T04:53:24;14.50;97.50
41720;DHT22;27405;53.316;-6.294;2023-07-13T04:55:50;14.40;97.50
41720;DHT22;27405;53.316;-6.294;2023-07-13T04:58:16;14.40;97.60
41720;DHT22;27405;53.316;-6.294;2023-07-13T05:00:42;14.40;97.70
41720;DHT22;27405;53.316;-6.294;2023-07-13T05:03:08;14.40;97.70
41720;DHT22;27405;53.316;-6.294;2023-07-13T05:05:34;14.40;97.80
41720;DHT22;27405;53.316;-6.294;2023-07-13T05:07:59;14.40;97.80
41720;DHT22;27405;53.316;-6.294;2023-07-13T05:10:25;14.40;97.80
41720;DHT22;27405;53.316;-6.294;2023-07-13T05:12:51;14.40;97.80
41720;DHT22;27405;53.316;-6.294;2023-07-13T05:15:17;14.40;97.80
41720;DHT22;27405;53.316;-6.294;2023-07-13T05:17:49;14.40;97.80
41720;DHT22;27405;53.316;-6.294;2023-07-13T05:20:15;14.40;97.90
41720;DHT22;27405;53.316;-6.294;2023-07-13T05:22:41;14.40;97.90
41720;DHT22;27405;53.316;-6.294;2023-07-13T05:25:07;14.40;97.80
41720;DHT22;27405;53.316;-6.294;2023-07-13T05:27:34;14.50;97.90
41720;DHT22;27405;53.316;-6.294;2023-07-13T05:30:01;14.50;98.00
41720;DHT22;27405;53.316;-6.294;2023-07-13T05:32:27;14.60;98.10
41720;DHT22;27405;53.316;-6.294;2023-07-13T05:34:53;14.80;98.10
41720;DHT22;27405;53.316;-6.294;2023-07-13T05:37:18;14.90;98.00
41720;DHT22;27405;53.316;-6.294;2023-07-13T05:39:44;15.00;97.90
41720;DHT22;27405;53.316;-6.294;2023-07-13T05:42:09;15.10;97.80
41720;DHT22;27405;53.316;-6.294;2023-07-13T05:44:35;15.20;97.70
41720;DHT22;27405;53.316;-6.294;2023-07-13T05:47:01;15.20;97.50
41720;DHT22;27405;53.316;-6.294;2023-07-13T05:49:27;15.20;97.50
41720;DHT22;27405;53.316;-6.294;2023-07-13T05:51:52;15.20;97.60
41720;DHT22;27405;53.316;-6.294;2023-07-13T05:54:18;15.30;97.60
41720;DHT22;27405;53.316;-6.294;2023-07-13T05:56:44;15.30;97.50
41720;DHT22;27405;53.316;-6.294;2023-07-13T05:59:10;15.40;97.40
41720;DHT22;27405;53.316;-6.294;2023-07-13T06:01:35;15.40;97.40
41720;DHT22;27405;53.316;-6.294;2023-07-13T06:04:01;15.40;97.30
41720;DHT22;27405;53.316;-6.294;2023-07-13T06:06:27;15.50;97.30
41720;DHT22;27405;53.316;-6.294;2023-07-13T06:08:53;15.50;97.30
41720;DHT22;27405;53.316;-6.294;2023-07-13T06:11:21;15.50;97.30
41720;DHT22;27405;53.316;-6.294;2023-07-13T06:13:47;15.50;97.20
41720;DHT22;27405;53.316;-6.294;2023-07-13T06:16:14;15.50;97.20
41720;DHT22;27405;53.316;-6.294;2023-07-13T06:18:40;15.50;97.20
41720;DHT22;27405;53.316;-6.294;2023-07-13T06:21:15;15.50;97.30
41720;DHT22;27405;53.316;-6.294;2023-07-13T06:23:41;15.50;97.30
41720;DHT22;27405;53.316;-6.294;2023-07-13T06:26:07;15.50;97.30
41720;DHT22;27405;53.316;-6.294;2023-07-13T06:28:34;15.50;97.30
41720;DHT22;27405;53.316;-6.294;2023-07-13T06:31:01;15.50;97.30
41720;DHT22;27405;53.316;-6.294;2023-07-13T06:33:27;15.40;97.40
41720;DHT22;27405;53.316;-6.294;2023-07-13T06:35:53;15.40;97.50
41720;DHT22;27405;53.316;-6.294;2023-07-13T06:38:20;15.50;97.70
41720;DHT22;27405;53.316;-6.294;2023-07-13T06:40:46;15.60;97.80
41720;DHT22;27405;53.316;-6.294;2023-07-13T06:43:12;15.80;97.70
41720;DHT22;27405;53.316;-6.294;2023-07-13T06:45:45;15.90;97.50
41720;DHT22;27405;53.316;-6.294;2023-07-13T06:48:15;16.00;97.40
41720;DHT22;27405;53.316;-6.294;2023-07-13T06:50:41;16.00;97.30
41720;DHT22;27405;53.316;-6.294;2023-07-13T06:53:07;16.10;97.20
41720;DHT22;27405;53.316;-6.294;2023-07-13T06:55:35;16.10;97.10
41720;DHT22;27405;53.316;-6.294;2023-07-13T06:58:01;16.10;97.10
41720;DHT22;27405;53.316;-6.294;2023-07-13T07:00:27;16.20;97.00
41720;DHT22;27405;53.316;-6.294;2023-07-13T07:02:56;16.20;96.90
41720;DHT22;27405;53.316;-6.294;2023-07-13T07:05:22;16.20;96.80
41720;DHT22;27405;53.316;-6.294;2023-07-13T07:07:49;16.30;96.90
41720;DHT22;27405;53.316;-6.294;2023-07-13T07:10:15;16.30;96.80
41720;DHT22;27405;53.316;-6.294;2023-07-13T07:12:44;16.40;96.80
41720;DHT22;27405;53.316;-6.294;2023-07-13T07:15:10;16.50;96.70
41720;DHT22;27405;53.316;-6.294;2023-07-13T07:17:36;16.60;96.50
41720;DHT22;27405;53.316;-6.294;2023-07-13T07:20:02;16.70;96.40
41720;DHT22;27405;53.316;-6.294;2023-07-13T07:22:29;16.70;96.20
41720;DHT22;27405;53.316;-6.294;2023-07-13T07:24:56;16.70;96.40
41720;DHT22;27405;53.316;-6.294;2023-07-13T07:27:22;16.70;96.20
41720;DHT22;27405;53.316;-6.294;2023-07-13T07:29:47;16.80;96.20
41720;DHT22;27405;53.316;-6.294;2023-07-13T07:32:13;16.80;96.00
41720;DHT22;27405;53.316;-6.294;2023-07-13T07:34:39;16.90;95.90
41720;DHT22;27405;53.316;-6.294;2023-07-13T07:37:05;16.90;95.90
41720;DHT22;27405;53.316;-6.294;2023-07-13T07:39:31;16.90;95.80
41720;DHT22;27405;53.316;-6.294;2023-07-13T07:41:57;16.90;95.80
41720;DHT22;27405;53.316;-6.294;2023-07-13T07:44:22;17.00;95.90
41720;DHT22;27405;53.316;-6.294;2023-07-13T07:46:48;17.10;95.80
41720;DHT22;27405;53.316;-6.294;2023-07-13T07:49:15;17.20;95.70
41720;DHT22;27405;53.316;-6.294;2023-07-13T07:51:40;17.30;95.60
41720;DHT22;27405;53.316;-6.294;2023-07-13T07:54:06;17.30;95.50
41720;DHT22;27405;53.316;-6.294;2023-07-13T07:56:32;17.30;95.40
41720;DHT22;27405;53.316;-6.294;2023-07-13T07:58:58;17.30;95.30
41720;DHT22;27405;53.316;-6.294;2023-07-13T08:01:23;17.40;95.40
41720;DHT22;27405;53.316;-6.294;2023-07-13T08:03:49;17.40;95.40
41720;DHT22;27405;53.316;-6.294;2023-07-13T08:06:15;17.50;95.30
41720;DHT22;27405;53.316;-6.294;2023-07-13T08:08:41;17.50;95.30
41720;DHT22;27405;53.316;-6.294;2023-07-13T08:11:08;17.50;95.20
41720;DHT22;27405;53.316;-6.294;2023-07-13T08:13:34;17.50;95.10
41720;DHT22;27405;53.316;-6.294;2023-07-13T08:16:01;17.50;95.20
41720;DHT22;27405;53.316;-6.294;2023-07-13T08:18:27;17.50;95.10
41720;DHT22;27405;53.316;-6.294;2023-07-13T08:20:55;17.60;95.10
41720;DHT22;27405;53.316;-6.294;2023-07-13T08:23:24;17.60;95.10
41720;DHT22;27405;53.316;-6.294;2023-07-13T08:25:53;17.70;95.00
41720;DHT22;27405;53.316;-6.294;2023-07-13T08:28:20;17.80;94.80
41720;DHT22;27405;53.316;-6.294;2023-07-13T08:30:46;17.80;94.70
41720;DHT22;27405;53.316;-6.294;2023-07-13T08:33:20;17.70;94.60
41720;DHT22;27405;53.316;-6.294;2023-07-13T08:35:49;17.60;94.80
41720;DHT22;27405;53.316;-6.294;2023-07-13T08:38:16;17.70;94.50
41720;DHT22;27405;53.316;-6.294;2023-07-13T08:40:42;17.70;94.50
41720;DHT22;27405;53.316;-6.294;2023-07-13T08:43:20;17.70;94.40
41720;DHT22;27405;53.316;-6.294;2023-07-13T08:46:12;17.70;94.20
41720;DHT22;27405;53.316;-6.294;2023-07-13T08:48:43;17.70;94.20
41720;DHT22;27405;53.316;-6.294;2023-07-13T08:51:46;17.70;94.10
41720;DHT22;27405;53.316;-6.294;2023-07-13T08:54:35;17.70;93.90
41720;DHT22;27405;53.316;-6.294;2023-07-13T08:57:09;17.70;93.80
41720;DHT22;27405;53.316;-6.294;2023-07-13T08:59:36;17.70;93.90
41720;DHT22;27405;53.316;-6.294;2023-07-13T09:05:29;17.80;93.60
41720;DHT22;27405;53.316;-6.294;2023-07-13T09:08:27;18.00;93.70
41720;DHT22;27405;53.316;-6.294;2023-07-13T09:11:23;18.20;93.50
41720;DHT22;27405;53.316;-6.294;2023-07-13T09:16:21;18.60;92.90
41720;DHT22;27405;53.316;-6.294;2023-07-13T09:18:50;18.80;92.70
41720;DHT22;27405;53.316;-6.294;2023-07-13T09:21:18;18.90;92.30
41720;DHT22;27405;53.316;-6.294;2023-07-13T09:23:47;19.00;91.90
41720;DHT22;27405;53.316;-6.294;2023-07-13T09:26:20;18.90;91.60
41720;DHT22;27405;53.316;-6.294;2023-07-13T09:28:57;18.80;91.70
41720;DHT22;27405;53.316;-6.294;2023-07-13T09:34:28;18.80;91.60
41720;DHT22;27405;53.316;-6.294;2023-07-13T09:36:56;18.80;91.60
41720;DHT22;27405;53.316;-6.294;2023-07-13T09:39:30;18.80;91.50
41720;DHT22;27405;53.316;-6.294;2023-07-13T09:44:59;18.80;91.30
41720;DHT22;27405;53.316;-6.294;2023-07-13T09:47:29;18.80;91.50
41720;DHT22;27405;53.316;-6.294;2023-07-13T09:50:00;18.70;91.40
41720;DHT22;27405;53.316;-6.294;2023-07-13T09:52:27;18.80;91.20
41720;DHT22;27405;53.316;-6.294;2023-07-13T09:54:56;18.80;91.10
41720;DHT22;27405;53.316;-6.294;2023-07-13T09:57:26;19.00;91.10
41720;DHT22;27405;53.316;-6.294;2023-07-13T09:59:54;19.10;90.80
41720;DHT22;27405;53.316;-6.294;2023-07-13T10:02:34;19.20;90.60
41720;DHT22;27405;53.316;-6.294;2023-07-13T10:05:06;19.30;90.70
41720;DHT22;27405;53.316;-6.294;2023-07-13T10:07:38;19.40;90.40
41720;DHT22;27405;53.316;-6.294;2023-07-13T10:10:14;19.50;90.30
41720;DHT22;27405;53.316;-6.294;2023-07-13T10:12:40;19.60;89.70
41720;DHT22;27405;53.316;-6.294;2023-07-13T10:15:14;19.60;89.30
41720;DHT22;27405;53.316;-6.294;2023-07-13T10:17:40;19.60;88.90
41720;DHT22;27405;53.316;-6.294;2023-07-13T10:20:06;19.70;89.20
41720;DHT22;27405;53.316;-6.294;2023-07-13T10:23:02;19.70;88.70
41720;DHT22;27405;53.316;-6.294;2023-07-13T10:25:32;19.80;88.30
41720;DHT22;27405;53.316;-6.294;2023-07-13T10:30:48;20.00;86.90
41720;DHT22;27405;53.316;-6.294;2023-07-13T10:33:15;19.90;86.10
41720;DHT22;27405;53.316;-6.294;2023-07-13T10:35:43;19.90;85.40
41720;DHT22;27405;53.316;-6.294;2023-07-13T10:38:15;19.90;85.20
41720;DHT22;27405;53.316;-6.294;2023-07-13T10:41:04;19.90;84.90
41720;DHT22;27405;53.316;-6.294;2023-07-13T10:43:39;20.00;84.60
41720;DHT22;27405;53.316;-6.294;2023-07-13T10:46:09;20.10;84.00
41720;DHT22;27405;53.316;-6.294;2023-07-13T10:48:36;20.30;83.70
41720;DHT22;27405;53.316;-6.294;2023-07-13T10:51:05;20.40;83.50
41720;DHT22;27405;53.316;-6.294;2023-07-13T10:53:34;20.60;82.80
41720;DHT22;27405;53.316;-6.294;2023-07-13T10:56:04;20.80;82.50
41720;DHT22;27405;53.316;-6.294;2023-07-13T10:58:38;21.10;82.00
41720;DHT22;27405;53.316;-6.294;2023-07-13T11:01:13;21.40;80.60
41720;DHT22;27405;53.316;-6.294;2023-07-13T11:03:55;21.50;80.00
41720;DHT22;27405;53.316;-6.294;2023-07-13T11:08:52;21.40;79.20
41720;DHT22;27405;53.316;-6.294;2023-07-13T11:19:02;21.50;78.30
41720;DHT22;27405;53.316;-6.294;2023-07-13T11:21:34;21.60;78.40
41720;DHT22;27405;53.316;-6.294;2023-07-13T11:31:55;21.70;76.10
41720;DHT22;27405;53.316;-6.294;2023-07-13T11:34:28;21.60;76.10
41720;DHT22;27405;53.316;-6.294;2023-07-13T11:36:57;21.40;74.70
41720;DHT22;27405;53.316;-6.294;2023-07-13T11:42:05;20.90;75.70
41720;DHT22;27405;53.316;-6.294;2023-07-13T11:44:33;20.70;76.30
41720;DHT22;27405;53.316;-6.294;2023-07-13T11:47:07;20.60;76.50
41720;DHT22;27405;53.316;-6.294;2023-07-13T11:49:42;20.60;76.70
41720;DHT22;27405;53.316;-6.294;2023-07-13T11:52:18;20.60;76.70
41720;DHT22;27405;53.316;-6.294;2023-07-13T11:54:51;20.70;76.20
41720;DHT22;27405;53.316;-6.294;2023-07-13T11:57:32;20.80;76.10
41720;DHT22;27405;53.316;-6.294;2023-07-13T12:00:03;20.90;76.20
41720;DHT22;27405;53.316;-6.294;2023-07-13T12:02:34;20.90;76.50
41720;DHT22;27405;53.316;-6.294;2023-07-13T12:05:02;20.80;76.80
41720;DHT22;27405;53.316;-6.294;2023-07-13T12:07:31;20.80;76.90
41720;DHT22;27405;53.316;-6.294;2023-07-13T12:10:22;20.80;77.20
41720;DHT22;27405;53.316;-6.294;2023-07-13T12:12:57;20.90;77.60
41720;DHT22;27405;53.316;-6.294;2023-07-13T12:15:28;21.10;77.10
41720;DHT22;27405;53.316;-6.294;2023-07-13T12:17:56;21.20;76.60
41720;DHT22;27405;53.316;-6.294;2023-07-13T12:20:30;21.40;76.00
41720;DHT22;27405;53.316;-6.294;2023-07-13T12:22:59;21.60;75.20
41720;DHT22;27405;53.316;-6.294;2023-07-13T12:25:25;21.60;74.70
41720;DHT22;27405;53.316;-6.294;2023-07-13T12:27:51;21.70;74.60
41720;DHT22;27405;53.316;-6.294;2023-07-13T12:30:29;21.70;74.70
41720;DHT22;27405;53.316;-6.294;2023-07-13T12:33:01;21.80;74.40
41720;DHT22;27405;53.316;-6.294;2023-07-13T12:35:29;21.90;74.00
41720;DHT22;27405;53.316;-6.294;2023-07-13T12:37:58;21.90;74.10
41720;DHT22;27405;53.316;-6.294;2023-07-13T12:40:33;22.10;73.70
41720;DHT22;27405;53.316;-6.294;2023-07-13T12:43:01;22.20;73.40
41720;DHT22;27405;53.316;-6.294;2023-07-13T12:45:30;22.30;73.20
41720;DHT22;27405;53.316;-6.294;2023-07-13T12:48:04;22.40;72.70
41720;DHT22;27405;53.316;-6.294;2023-07-13T12:50:41;22.50;72.60
41720;DHT22;27405;53.316;-6.294;2023-07-13T12:53:21;22.50;72.50
41720;DHT22;27405;53.316;-6.294;2023-07-13T12:55:50;22.50;72.20
41720;DHT22;27405;53.316;-6.294;2023-07-13T13:00:57;22.40;72.40
41720;DHT22;27405;53.316;-6.294;2023-07-13T13:03:37;22.40;72.50
41720;DHT22;27405;53.316;-6.294;2023-07-13T13:08:35;22.40;72.40
41720;DHT22;27405;53.316;-6.294;2023-07-13T13:11:02;22.40;71.90
41720;DHT22;27405;53.316;-6.294;2023-07-13T13:13:27;22.40;72.00
41720;DHT22;27405;53.316;-6.294;2023-07-13T13:15:54;22.30;72.60
41720;DHT22;27405;53.316;-6.294;2023-07-13T13:18:21;22.40;72.40
41720;DHT22;27405;53.316;-6.294;2023-07-13T13:20:49;22.60;71.70
41720;DHT22;27405;53.316;-6.294;2023-07-13T13:23:17;22.80;71.10
41720;DHT22;27405;53.316;-6.294;2023-07-13T13:25:44;22.90;70.70
41720;DHT22;27405;53.316;-6.294;2023-07-13T13:28:18;23.20;71.80
41720;DHT22;27405;53.316;-6.294;2023-07-13T13:30:46;23.50;69.90
41720;DHT22;27405;53.316;-6.294;2023-07-13T13:33:15;23.70;69.10
41720;DHT22;27405;53.316;-6.294;2023-07-13T13:35:42;23.70;68.70
41720;DHT22;27405;53.316;-6.294;2023-07-13T13:38:16;23.50;68.50
41720;DHT22;27405;53.316;-6.294;2023-07-13T13:40:44;23.40;68.10
41720;DHT22;27405;53.316;-6.294;2023-07-13T13:43:22;23.30;68.40
41720;DHT22;27405;53.316;-6.294;2023-07-13T13:45:52;23.20;68.30
41720;DHT22;27405;53.316;-6.294;2023-07-13T13:48:22;23.10;68.10
41720;DHT22;27405;53.316;-6.294;2023-07-13T13:50:56;23.10;68.80
41720;DHT22;27405;53.316;-6.294;2023-07-13T13:53:21;23.10;68.70
41720;DHT22;27405;53.316;-6.294;2023-07-13T13:55:49;23.10;68.40
41720;DHT22;27405;53.316;-6.294;2023-07-13T13:58:15;23.10;68.50
41720;DHT22;27405;53.316;-6.294;2023-07-13T14:00:41;23.10;68.50
41720;DHT22;27405;53.316;-6.294;2023-07-13T14:03:18;22.90;68.60
41720;DHT22;27405;53.316;-6.294;2023-07-13T14:05:45;22.80;68.60
41720;DHT22;27405;53.316;-6.294;2023-07-13T14:08:29;22.60;69.30
41720;DHT22;27405;53.316;-6.294;2023-07-13T14:10:57;22.60;70.20
41720;DHT22;27405;53.316;-6.294;2023-07-13T14:13:39;22.80;70.60
41720;DHT22;27405;53.316;-6.294;2023-07-13T14:16:16;23.10;70.50
41720;DHT22;27405;53.316;-6.294;2023-07-13T14:18:44;23.50;69.80
41720;DHT22;27405;53.316;-6.294;2023-07-13T14:21:21;23.80;69.30
41720;DHT22;27405;53.316;-6.294;2023-07-13T14:23:48;24.00;68.50
41720;DHT22;27405;53.316;-6.294;2023-07-13T14:26:22;23.90;68.10
41720;DHT22;27405;53.316;-6.294;2023-07-13T14:28:51;23.80;67.70
41720;DHT22;27405;53.316;-6.294;2023-07-13T14:31:17;23.60;68.20
41720;DHT22;27405;53.316;-6.294;2023-07-13T14:33:44;23.40;68.60
41720;DHT22;27405;53.316;-6.294;2023-07-13T14:36:43;23.20;69.00
41720;DHT22;27405;53.316;-6.294;2023-07-13T14:39:18;22.90;69.60
41720;DHT22;27405;53.316;-6.294;2023-07-13T14:41:45;22.80;70.80
41720;DHT22;27405;53.316;-6.294;2023-07-13T14:44:12;22.50;72.20
41720;DHT22;27405;53.316;-6.294;2023-07-13T14:46:39;22.20;73.40
41720;DHT22;27405;53.316;-6.294;2023-07-13T14:49:23;21.90;74.60
41720;DHT22;27405;53.316;-6.294;2023-07-13T14:51:50;21.70;75.90
41720;DHT22;27405;53.316;-6.294;2023-07-13T14:54:15;21.60;76.60
41720;DHT22;27405;53.316;-6.294;2023-07-13T14:56:41;21.70;77.30
41720;DHT22;27405;53.316;-6.294;2023-07-13T14:59:07;21.90;78.20
41720;DHT22;27405;53.316;-6.294;2023-07-13T15:01:34;22.40;78.50
41720;DHT22;27405;53.316;-6.294;2023-07-13T15:04:00;23.20;77.20
41720;DHT22;27405;53.316;-6.294;2023-07-13T15:06:27;23.70;75.70
41720;DHT22;27405;53.316;-6.294;2023-07-13T15:08:52;23.90;75.10
41720;DHT22;27405;53.316;-6.294;2023-07-13T15:11:18;24.10;74.50
41720;DHT22;27405;53.316;-6.294;2023-07-13T15:13:44;24.20;73.90
41720;DHT22;27405;53.316;-6.294;2023-07-13T15:16:21;24.20;73.70
41720;DHT22;27405;53.316;-6.294;2023-07-13T15:18:48;24.30;73.50
41720;DHT22;27405;53.316;-6.294;2023-07-13T15:21:21;24.70;73.30
41720;DHT22;27405;53.316;-6.294;2023-07-13T15:23:48;25.00;72.60
41720;DHT22;27405;53.316;-6.294;2023-07-13T15:26:15;25.30;72.30
41720;DHT22;27405;53.316;-6.294;2023-07-13T15:28:43;25.40;71.40
41720;DHT22;27405;53.316;-6.294;2023-07-13T15:31:25;25.40;70.90
41720;DHT22;27405;53.316;-6.294;2023-07-13T15:33:56;25.10;70.80
41720;DHT22;27405;53.316;-6.294;2023-07-13T15:36:23;24.90;71.00
41720;DHT22;27405;53.316;-6.294;2023-07-13T15:38:51;24.60;71.20
41720;DHT22;27405;53.316;-6.294;2023-07-13T15:41:20;24.30;71.70
41720;DHT22;27405;53.316;-6.294;2023-07-13T15:43:52;24.20;72.00
41720;DHT22;27405;53.316;-6.294;2023-07-13T15:46:19;24.00;72.10
41720;DHT22;27405;53.316;-6.294;2023-07-13T15:48:47;23.80;72.60
41720;DHT22;27405;53.316;-6.294;2023-07-13T15:51:27;23.60;73.30
41720;DHT22;27405;53.316;-6.294;2023-07-13T15:53:55;23.30;73.60
41720;DHT22;27405;53.316;-6.294;2023-07-13T15:56:27;23.10;74.30
41720;DHT22;27405;53.316;-6.294;2023-07-13T15:58:54;22.90;75.40
41720;DHT22;27405;53.316;-6.294;2023-07-13T16:01:22;22.70;75.90
41720;DHT22;27405;53.316;-6.294;2023-07-13T16:03:49;22.50;76.20
41720;DHT22;27405;53.316;-6.294;2023-07-13T16:06:19;22.30;76.70